Time;durP1;ratioP1;P1;durP2;ratioP2;P2;SDS_P1;SDS_P2;PMS_P1;PMS_P2;Temp;Humidity;BMP_temperature;BMP_pressure;BME280_temperature;BME280_humidity;BME280_pressure;Samples;Min_cycle;Max_cycle;Signal;HPM_P1;HPM_P2
2023/08/14 00:02:33;;;;;;;7.78;1.25;;;;;;;16.86;100.00;100314.94;4732524;30;20037;-74
2023/08/14 00:05:19;;;;;;;4.85;1.02;;;;;;;16.82;100.00;100307.56;4745142;30;20036;-74
2023/08/14 00:08:05;;;;;;;4.80;1.13;;;;;;;16.78;100.00;100296.19;4732123;30;20109;-74
2023/08/14 00:10:50;;;;;;;7.28;1.27;;;;;;;16.79;100.00;100300.63;4721009;30;20140;-73
2023/08/14 00:13:55;;;;;;;6.13;1.40;;;;;;;16.72;100.00;100298.34;4716015;30;20032;-73
2023/08/14 00:16:41;;;;;;;5.20;1.35;;;;;;;16.67;100.00;100290.13;4728895;30;20040;-73
2023/08/14 00:19:27;;;;;;;5.60;1.55;;;;;;;16.68;100.00;100297.38;4733824;30;20040;-74
2023/08/14 00:22:13;;;;;;;4.78;1.45;;;;;;;16.61;100.00;100297.13;4744204;30;20417;-74
2023/08/14 00:24:58;;;;;;;4.30;1.35;;;;;;;16.57;100.00;100301.75;4744960;30;20036;-74
2023/08/14 00:27:44;;;;;;;3.40;1.02;;;;;;;16.60;100.00;100286.22;4732040;30;20043;-74
2023/08/14 00:30:30;;;;;;;8.85;1.33;;;;;;;16.52;100.00;100293.56;4745163;30;20052;-73
2023/08/14 00:33:16;;;;;;;2.90;1.30;;;;;;;16.48;100.00;100289.78;4756985;30;20486;-74
2023/08/14 00:36:02;;;;;;;6.75;1.23;;;;;;;16.45;100.00;100290.44;4756684;30;20040;-74
2023/08/14 00:38:48;;;;;;;5.47;1.40;;;;;;;16.43;100.00;100295.56;4732018;30;20043;-73
2023/08/14 00:41:33;;;;;;;3.40;1.38;;;;;;;16.43;100.00;100290.78;4745073;30;20036;-74
2023/08/14 00:44:19;;;;;;;4.63;1.05;;;;;;;16.40;100.00;100299.88;4743925;30;20040;-74
2023/08/14 00:47:06;;;;;;;9.00;1.60;;;;;;;16.36;100.00;100296.13;4721454;30;20047;-73
2023/08/14 00:49:51;;;;;;;6.75;1.20;;;;;;;16.31;100.00;100301.91;4720110;30;20051;-73
2023/08/14 00:52:39;;;;;;;6.43;1.30;;;;;;;16.33;100.00;100293.16;4731548;30;20383;-73
2023/08/14 00:55:27;;;;;;;7.63;1.65;;;;;;;16.30;100.00;100289.88;4720762;30;20127;-73
2023/08/14 00:58:13;;;;;;;7.18;1.40;;;;;;;16.29;100.00;100302.22;4719862;30;20044;-73
2023/08/14 01:00:59;;;;;;;9.98;1.63;;;;;;;16.25;100.00;100284.47;4731693;30;20040;-73
2023/08/14 01:03:44;;;;;;;5.55;1.20;;;;;;;16.24;100.00;100291.25;4731536;30;20047;-74
2023/08/14 01:06:30;;;;;;;5.68;1.27;;;;;;;16.23;100.00;100280.34;4743408;30;20066;-74
2023/08/14 01:09:16;;;;;;;6.18;1.30;;;;;;;16.23;100.00;100281.16;4744503;30;20051;-74
2023/08/14 01:12:05;;;;;;;4.93;1.20;;;;;;;16.20;100.00;100267.84;4722306;30;20040;-74
2023/08/14 01:14:55;;;;;;;4.93;1.30;;;;;;;16.22;100.00;100268.34;4757416;30;20067;-74
2023/08/14 01:17:44;;;;;;;5.82;1.10;;;;;;;16.23;100.00;100280.34;4718079;30;20396;-74
2023/08/14 01:20:31;;;;;;;5.28;0.93;;;;;;;16.21;100.00;100275.06;4713925;30;20051;-73
2023/08/14 01:23:53;;;;;;;4.45;1.23;;;;;;;16.16;100.00;100272.50;4698357;30;20439;-74
2023/08/14 01:26:38;;;;;;;5.93;1.30;;;;;;;16.17;100.00;100276.09;4716741;30;20044;-74
2023/08/14 01:29:24;;;;;;;5.57;1.20;;;;;;;16.17;100.00;100274.13;4703636;30;20506;-74
2023/08/14 01:32:10;;;;;;;9.43;2.00;;;;;;;16.16;100.00;100277.25;4725691;30;20072;-73
2023/08/14 01:34:56;;;;;;;4.93;1.13;;;;;;;16.17;100.00;100273.31;4739278;30;20051;-73
2023/08/14 01:37:46;;;;;;;7.22;1.50;;;;;;;16.15;100.00;100268.03;4713797;30;20053;-73
2023/08/14 01:41:06;;;;;;;7.78;1.50;;;;;;;16.14;100.00;100263.59;4714137;30;20045;-74
2023/08/14 01:43:54;;;;;;;7.03;1.60;;;;;;;16.10;100.00;100254.19;4704011;30;20068;-73
2023/08/14 01:46:42;;;;;;;8.30;1.50;;;;;;;16.07;100.00;100247.31;4713875;30;20045;-73
2023/08/14 01:49:28;;;;;;;6.10;1.30;;;;;;;16.06;100.00;100242.03;4703540;30;20047;-73
2023/08/14 01:52:14;;;;;;;6.10;1.30;;;;;;;16.02;100.00;100250.31;4713689;30;20100;-73
2023/08/14 01:55:00;;;;;;;8.15;1.75;;;;;;;16.02;100.00;100258.72;4726237;30;20040;-74
2023/08/14 01:57:46;;;;;;;6.35;1.40;;;;;;;15.99;100.00;100267.78;4713568;30;20048;-74
2023/08/14 02:00:33;;;;;;;3.63;1.10;;;;;;;15.96;100.00;100256.41;4695505;30;20580;-73
2023/08/14 02:03:19;;;;;;;3.97;1.00;;;;;;;15.91;100.00;100251.84;4752409;30;20048;-73
2023/08/14 02:06:05;;;;;;;5.68;1.50;;;;;;;15.91;100.00;100251.00;4719323;30;20032;-74
2023/08/14 02:08:51;;;;;;;7.72;1.58;;;;;;;15.92;100.00;100252.66;4730287;30;20075;-74
2023/08/14 02:11:36;;;;;;;4.82;1.20;;;;;;;15.90;100.00;100240.97;4713944;30;20068;-73
2023/08/14 02:14:22;;;;;;;6.53;1.20;;;;;;;15.88;100.00;100237.69;4725799;30;20407;-74
2023/08/14 02:17:08;;;;;;;4.88;1.60;;;;;;;15.88;100.00;100224.53;4730421;30;20036;-73
2023/08/14 02:19:54;;;;;;;6.97;1.50;;;;;;;15.84;100.00;100223.53;4710979;30;20047;-74
2023/08/14 02:22:40;;;;;;;6.32;1.52;;;;;;;15.79;100.00;100220.91;4731032;30;20486;-74
2023/08/14 02:25:26;;;;;;;6.13;1.33;;;;;;;15.78;100.00;100227.69;4742815;30;20032;-74
2023/08/14 02:28:12;;;;;;;7.80;1.75;;;;;;;15.77;100.00;100232.47;4730690;30;20066;-73
2023/08/14 02:31:01;;;;;;;6.68;1.40;;;;;;;15.77;100.00;100226.06;4719410;30;20119;-73
2023/08/14 02:33:47;;;;;;;7.38;1.40;;;;;;;15.72;100.00;100227.06;4730583;30;20524;-73
2023/08/14 02:36:33;;;;;;;5.05;1.52;;;;;;;15.69;100.00;100227.72;4742570;30;20510;-73
2023/08/14 02:39:19;;;;;;;4.50;1.30;;;;;;;15.65;100.00;100221.91;4730608;30;20124;-73
2023/08/14 02:42:04;;;;;;;4.47;1.17;;;;;;;15.64;100.00;100223.09;4730379;30;20143;-74
2023/08/14 02:44:50;;;;;;;5.63;1.25;;;;;;;15.61;100.00;100220.16;4719327;30;20075;-74
2023/08/14 02:47:36;;;;;;;6.38;1.65;;;;;;;15.59;100.00;100209.28;4742470;30;20074;-73
2023/08/14 02:50:22;;;;;;;5.35;1.60;;;;;;;15.53;100.00;100216.22;4742640;30;20052;-73
2023/08/14 02:53:08;;;;;;;5.18;1.20;;;;;;;15.55;100.00;100216.72;4730337;30;20047;-73
2023/08/14 02:55:53;;;;;;;5.63;1.40;;;;;;;15.50;100.00;100218.88;4730386;30;20040;-73
2023/08/14 02:58:39;;;;;;;4.82;1.50;;;;;;;15.49;100.00;100214.41;4730319;30;20416;-73
2023/08/14 03:01:25;;;;;;;4.50;1.33;;;;;;;15.50;100.00;100204.88;4730109;30;20409;-73
2023/08/14 03:04:13;;;;;;;4.25;1.40;;;;;;;15.43;100.00;100208.16;4730250;30;20044;-73
2023/08/14 03:06:59;;;;;;;5.90;1.20;;;;;;;15.40;100.00;100197.66;4730552;30;20072;-73
2023/08/14 03:09:44;;;;;;;4.13;1.00;;;;;;;15.39;100.00;100199.63;4726602;30;20133;-73
2023/08/14 03:12:30;;;;;;;4.88;1.20;;;;;;;15.33;100.00;100192.59;4725885;30;20383;-74
2023/08/14 03:15:16;;;;;;;6.32;1.30;;;;;;;15.31;100.00;100180.09;4713562;30;20045;-73
2023/08/14 03:18:02;;;;;;;5.10;1.33;;;;;;;15.29;100.00;100174.00;4736204;30;20045;-73
2023/08/14 03:20:48;;;;;;;4.68;1.25;;;;;;;15.30;100.00;100168.06;4711874;30;20053;-74
2023/08/14 03:23:35;;;;;;;8.73;1.33;;;;;;;15.26;100.00;100155.88;4715731;30;20036;-74
2023/08/14 03:26:21;;;;;;;4.40;1.40;;;;;;;15.28;100.00;100148.00;4712107;30;20045;-73
2023/08/14 03:29:06;;;;;;;6.22;1.50;;;;;;;15.26;100.00;100144.69;4726681;30;20525;-73
2023/08/14 03:31:52;;;;;;;5.95;1.55;;;;;;;15.21;100.00;100158.91;4716619;30;20040;-73
2023/08/14 03:34:38;;;;;;;7.43;1.60;;;;;;;15.22;100.00;100159.72;4717011;30;20155;-73
2023/08/14 03:37:24;;;;;;;5.95;1.35;;;;;;;15.18;100.00;100156.75;4716714;30;20040;-73
2023/08/14 03:40:10;;;;;;;5.35;1.50;;;;;;;15.18;100.00;100148.34;4727040;30;20048;-73
2023/08/14 03:42:56;;;;;;;5.60;1.15;;;;;;;15.15;100.00;100154.63;4705445;30;20037;-74
2023/08/14 03:45:41;;;;;;;5.57;1.35;;;;;;;15.13;100.00;100154.97;4726859;30;20036;-73
2023/08/14 03:48:27;;;;;;;5.45;1.35;;;;;;;15.16;100.00;100148.69;4715230;30;20521;-73
2023/08/14 03:51:13;;;;;;;6.05;1.38;;;;;;;15.15;100.00;100151.81;4715263;30;20041;-74
2023/08/14 03:53:59;;;;;;;4.95;1.40;;;;;;;15.09;100.00;100156.75;4727752;30;20037;-73
2023/08/14 03:56:45;;;;;;;6.40;1.30;;;;;;;15.08;100.00;100154.31;4715571;30;20422;-73
2023/08/14 03:59:31;;;;;;;7.32;1.48;;;;;;;15.10;100.00;100152.00;4714134;30;20403;-73
2023/08/14 04:02:17;;;;;;;5.53;1.63;;;;;;;15.04;100.00;100147.72;4726923;30;20511;-73
2023/08/14 04:05:03;;;;;;;7.20;1.48;;;;;;;15.01;100.00;100154.81;4716593;30;20076;-73
2023/08/14 04:07:48;;;;;;;6.97;1.40;;;;;;;14.98;100.00;100156.28;4699783;30;20203;-73
2023/08/14 04:10:34;;;;;;;5.90;1.38;;;;;;;14.97;100.00;100154.66;4727760;30;20553;-73
2023/08/14 04:13:20;;;;;;;4.43;0.90;;;;;;;14.95;100.00;100145.78;4710706;30;20056;-73
2023/08/14 04:16:06;;;;;;;4.40;1.25;;;;;;;14.97;100.00;100148.25;4721206;30;20056;-73
2023/08/14 04:18:51;;;;;;;5.30;1.30;;;;;;;14.96;100.00;100147.44;4734515;30;20490;-73
2023/08/14 04:21:37;;;;;;;4.75;1.60;;;;;;;14.90;100.00;100148.75;4715618;30;20032;-73
2023/08/14 04:24:23;;;;;;;3.60;1.23;;;;;;;14.90;100.00;100131.16;4726869;30;20047;-74
2023/08/14 04:27:09;;;;;;;6.55;1.20;;;;;;;14.84;100.00;100127.72;4727496;30;20120;-73
2023/08/14 04:29:54;;;;;;;6.15;1.30;;;;;;;14.93;100.00;100131.34;4738794;30;20044;-74
2023/08/14 04:32:41;;;;;;;3.05;1.15;;;;;;;14.84;100.00;100133.31;4714918;30;20102;-73
2023/08/14 04:35:26;;;;;;;6.22;1.27;;;;;;;14.82;100.00;100130.03;4714723;30;20047;-73
2023/08/14 04:38:12;;;;;;;4.80;1.35;;;;;;;14.79;100.00;100127.06;4704155;30;20053;-73
2023/08/14 04:40:58;;;;;;;2.88;1.17;;;;;;;14.80;100.00;100137.13;4716498;30;20074;-73
2023/08/14 04:43:44;;;;;;;4.75;1.20;;;;;;;14.78;100.00;100128.22;4715446;30;20048;-73
2023/08/14 04:46:33;;;;;;;4.13;1.17;;;;;;;14.77;100.00;100134.97;4715279;30;20047;-73
2023/08/14 04:49:18;;;;;;;5.13;1.00;;;;;;;14.76;100.00;100139.72;4702652;30;20066;-73
2023/08/14 04:52:04;;;;;;;6.22;1.60;;;;;;;14.78;100.00;100147.78;4708746;30;20148;-73
2023/08/14 04:54:50;;;;;;;5.72;1.08;;;;;;;14.73;100.00;100146.81;4731721;30;20044;-73
2023/08/14 04:57:36;;;;;;;5.05;1.58;;;;;;;14.73;100.00;100144.00;4757238;30;20143;-73
2023/08/14 05:00:22;;;;;;;5.57;1.45;;;;;;;14.74;100.00;100142.88;4720614;30;20041;-73
2023/08/14 05:03:07;;;;;;;3.97;1.02;;;;;;;14.76;100.00;100139.72;4731582;30;20048;-73
2023/08/14 05:05:53;;;;;;;4.18;1.13;;;;;;;14.77;100.00;100155.38;4731761;30;20043;-73
2023/08/14 05:08:39;;;;;;;3.90;1.08;;;;;;;14.81;100.00;100147.13;4744444;30;20472;-74
2023/08/14 05:11:25;;;;;;;5.30;1.30;;;;;;;14.80;100.00;100148.28;4728088;30;20124;-73
2023/08/14 05:14:10;;;;;;;4.38;1.23;;;;;;;14.83;100.00;100145.66;4726376;30;20036;-73
2023/08/14 05:16:56;;;;;;;3.60;1.30;;;;;;;14.85;100.00;100148.94;4707253;30;20046;-73
2023/08/14 05:19:42;;;;;;;4.13;1.20;;;;;;;14.89;100.00;100152.69;4727277;30;20048;-73
2023/08/14 05:22:28;;;;;;;5.35;1.40;;;;;;;14.97;100.00;100142.66;4713091;30;20047;-73
2023/08/14 05:25:13;;;;;;;4.93;1.38;;;;;;;15.02;100.00;100136.09;4714496;30;20037;-73
2023/08/14 05:27:59;;;;;;;4.57;1.35;;;;;;;15.08;100.00;100131.94;4726695;30;20041;-73
2023/08/14 05:30:45;;;;;;;4.15;1.15;;;;;;;15.13;100.00;100145.75;4725257;30;21084;-73
2023/08/14 05:33:31;;;;;;;4.55;1.20;;;;;;;15.19;100.00;100147.22;4713410;30;20036;-73
2023/08/14 05:36:17;;;;;;;6.55;1.50;;;;;;;15.30;100.00;100151.28;4714450;30;20048;-73
2023/08/14 05:39:03;;;;;;;8.02;1.52;;;;;;;15.36;100.00;100149.94;4726665;30;20483;-74
2023/08/14 05:41:49;;;;;;;4.65;1.42;;;;;;;15.44;100.00;100155.84;4703553;30;20041;-73
2023/08/14 05:44:35;;;;;;;6.20;1.40;;;;;;;15.51;100.00;100142.13;4713446;30;20052;-73
2023/08/14 05:47:21;;;;;;;5.25;1.23;;;;;;;15.54;100.00;100139.47;4726526;30;20040;-73
2023/08/14 05:50:06;;;;;;;4.25;1.52;;;;;;;15.61;100.00;100150.16;4699290;30;20574;-73
2023/08/14 05:52:55;;;;;;;3.53;1.20;;;;;;;15.64;100.00;100144.72;4697611;30;20041;-73
2023/08/14 05:55:41;;;;;;;6.97;1.35;;;;;;;15.70;100.00;100145.38;4710969;30;20490;-73
2023/08/14 05:58:26;;;;;;;4.55;1.23;;;;;;;15.71;100.00;100144.22;4730854;30;20078;-73
2023/08/14 06:01:12;;;;;;;3.05;1.40;;;;;;;15.74;100.00;100151.94;4731112;30;20115;-73
2023/08/14 06:03:58;;;;;;;4.22;1.10;;;;;;;15.78;100.00;100143.69;4730765;30;20075;-73
2023/08/14 06:06:44;;;;;;;5.20;1.23;;;;;;;15.80;100.00;100132.97;4742667;30;20118;-73
2023/08/14 06:09:30;;;;;;;4.72;1.10;;;;;;;15.84;100.00;100139.53;4742251;30;20529;-74
2023/08/14 06:12:15;;;;;;;6.25;1.98;;;;;;;15.88;100.00;100151.72;4725873;30;20037;-73
2023/08/14 06:15:01;;;;;;;4.82;1.55;;;;;;;15.90;100.00;100146.56;4714083;30;20049;-73
2023/08/14 06:17:48;;;;;;;6.65;1.23;;;;;;;15.96;100.00;100144.41;4731938;30;20048;-73
2023/08/14 06:20:33;;;;;;;5.40;1.33;;;;;;;15.99;100.00;100149.31;4700891;30;20037;-73
2023/08/14 06:23:19;;;;;;;5.93;1.50;;;;;;;16.03;100.00;100145.50;4715188;30;20044;-73
2023/08/14 06:26:05;;;;;;;6.45;1.70;;;;;;;16.08;100.00;100150.09;4726633;30;20037;-73
2023/08/14 06:28:51;;;;;;;7.60;1.85;;;;;;;16.15;100.00;100153.16;4725566;30;20079;-73
2023/08/14 06:31:36;;;;;;;3.55;1.50;;;;;;;16.22;100.00;100145.06;4712828;30;20045;-73
2023/08/14 06:34:22;;;;;;;6.47;1.50;;;;;;;16.34;100.00;100144.28;4725353;30;20040;-74
2023/08/14 06:37:08;;;;;;;9.20;1.50;;;;;;;16.45;100.00;100139.91;4713073;30;20052;-74
2023/08/14 06:39:54;;;;;;;6.28;1.60;;;;;;;16.61;100.00;100137.31;4726321;30;20091;-74
2023/08/14 06:42:39;;;;;;;5.70;1.67;;;;;;;16.77;100.00;100134.72;4702389;30;20067;-74
2023/08/14 06:45:25;;;;;;;9.20;1.50;;;;;;;16.97;100.00;100136.66;4715089;30;20135;-74
2023/08/14 06:48:11;;;;;;;6.10;1.52;;;;;;;17.17;100.00;100142.56;4702336;30;20049;-74
2023/08/14 06:50:59;;;;;;;6.85;1.83;;;;;;;17.39;100.00;100144.94;4725902;30;20041;-73
2023/08/14 06:53:44;;;;;;;6.50;1.60;;;;;;;17.62;100.00;100136.03;4702783;30;20048;-74
2023/08/14 06:56:30;;;;;;;8.13;1.73;;;;;;;17.79;100.00;100129.41;4714783;30;20087;-73
2023/08/14 06:59:16;;;;;;;9.05;1.77;;;;;;;17.97;100.00;100130.81;4729002;30;20118;-74
2023/08/14 07:02:02;;;;;;;6.38;1.17;;;;;;;18.15;100.00;100136.16;4716987;30;20109;-73
2023/08/14 07:04:48;;;;;;;7.63;1.80;;;;;;;18.31;100.00;100139.88;4729174;30;20083;-73
2023/08/14 07:07:33;;;;;;;3.25;1.27;;;;;;;18.46;100.00;100141.91;4728890;30;20036;-73
2023/08/14 07:10:19;;;;;;;6.95;1.38;;;;;;;18.65;100.00;100144.09;4705541;30;20521;-73
2023/08/14 07:13:06;;;;;;;6.03;1.58;;;;;;;18.85;100.00;100147.06;4715617;30;20048;-73
2023/08/14 07:15:52;;;;;;;5.65;1.17;;;;;;;19.07;100.00;100140.06;4701139;30;20045;-74
2023/08/14 07:18:38;;;;;;;6.03;1.40;;;;;;;19.32;100.00;100149.16;4721084;30;20054;-73
2023/08/14 07:21:23;;;;;;;7.15;1.48;;;;;;;19.59;100.00;100145.44;4727463;30;20044;-73
2023/08/14 07:24:09;;;;;;;9.20;1.48;;;;;;;19.88;100.00;100146.19;4728693;30;20049;-73
2023/08/14 07:26:56;;;;;;;6.45;1.38;;;;;;;20.12;100.00;100142.31;4728794;30;20076;-73
2023/08/14 07:29:42;;;;;;;6.68;1.42;;;;;;;20.39;100.00;100139.66;4716568;30;20040;-73
2023/08/14 07:32:27;;;;;;;5.28;1.20;;;;;;;20.63;100.00;100141.44;4703095;30;20041;-73
2023/08/14 07:35:13;;;;;;;5.80;1.25;;;;;;;20.84;100.00;100143.88;4715990;30;20052;-73
2023/08/14 07:37:59;;;;;;;7.88;1.95;;;;;;;21.00;100.00;100144.59;4728660;30;20040;-73
2023/08/14 07:40:45;;;;;;;5.57;1.13;;;;;;;21.13;100.00;100143.25;4727211;30;20049;-73
2023/08/14 07:43:31;;;;;;;7.82;1.52;;;;;;;21.23;100.00;100140.97;4704877;30;20129;-73
2023/08/14 07:46:18;;;;;;;6.50;1.20;;;;;;;21.29;100.00;100136.69;4715411;30;20037;-73
2023/08/14 07:49:03;;;;;;;8.43;1.35;;;;;;;21.35;100.00;100135.16;4717754;30;20135;-74
2023/08/14 07:51:49;;;;;;;9.73;1.75;;;;;;;21.37;100.00;100138.47;4704664;30;20538;-73
2023/08/14 07:54:35;;;;;;;8.77;1.50;;;;;;;21.40;100.00;100141.34;4733157;30;20052;-74
2023/08/14 07:57:21;;;;;;;6.68;1.20;;;;;;;21.44;100.00;100143.41;4721631;30;20052;-73
2023/08/14 08:00:08;;;;;;;8.20;1.42;;;;;;;21.42;100.00;100147.44;4744729;30;20127;-74
2023/08/14 08:02:54;;;;;;;7.35;1.40;;;;;;;21.41;100.00;100150.63;4732754;30;20072;-73
2023/08/14 08:05:40;;;;;;;9.20;1.48;;;;;;;21.39;100.00;100159.47;4744503;30;20391;-73
2023/08/14 08:08:25;;;;;;;7.85;1.48;;;;;;;21.40;100.00;100160.31;4732148;30;20040;-73
2023/08/14 08:11:11;;;;;;;10.93;1.92;;;;;;;21.37;100.00;100152.59;4718675;30;20063;-73
2023/08/14 08:13:58;;;;;;;9.15;1.90;;;;;;;21.33;100.00;100157.31;4740854;30;20104;-73
2023/08/14 08:16:44;;;;;;;4.63;1.30;;;;;;;21.33;100.00;100149.66;4730132;30;20047;-73
2023/08/14 08:19:30;;;;;;;10.18;1.63;;;;;;;21.35;100.00;100146.47;4733489;30;20367;-73
2023/08/14 08:22:16;;;;;;;7.07;1.70;;;;;;;21.38;100.00;100151.38;4720364;30;20524;-74
2023/08/14 08:25:02;;;;;;;8.73;1.50;;;;;;;21.41;100.00;100147.81;4732033;30;20510;-73
2023/08/14 08:27:47;;;;;;;9.88;1.60;;;;;;;21.47;100.00;100151.94;4744252;30;20037;-73
2023/08/14 08:30:33;;;;;;;13.70;2.35;;;;;;;21.55;100.00;100150.88;4756899;30;20512;-73
2023/08/14 08:33:19;;;;;;;9.77;2.05;;;;;;;21.67;100.00;100157.53;4732061;30;20050;-73
2023/08/14 08:36:05;;;;;;;8.63;2.03;;;;;;;21.78;100.00;100150.84;4731911;30;20059;-73
2023/08/14 08:38:51;;;;;;;9.23;1.63;;;;;;;21.92;100.00;100160.75;4744677;30;20040;-73
2023/08/14 08:41:38;;;;;;;7.88;1.70;;;;;;;22.05;100.00;100157.34;4731880;30;20040;-74
2023/08/14 08:44:31;;;;;;;9.25;1.92;;;;;;;22.25;100.00;100154.44;4731950;30;20071;-74
2023/08/14 08:47:17;;;;;;;7.45;1.60;;;;;;;22.40;100.00;100144.97;4720788;30;20053;-74
2023/08/14 08:50:03;;;;;;;8.07;1.73;;;;;;;22.59;100.00;100148.81;4731818;30;20051;-74
2023/08/14 08:52:49;;;;;;;10.30;1.85;;;;;;;22.79;100.00;100144.66;4732952;30;20096;-73
2023/08/14 08:55:35;;;;;;;8.27;1.98;;;;;;;23.05;100.00;100135.25;4731738;30;20044;-73
2023/08/14 08:58:21;;;;;;;9.52;2.10;;;;;;;23.28;100.00;100134.28;4721063;30;20056;-74
2023/08/14 09:01:06;;;;;;;11.50;1.92;;;;;;;23.39;100.00;100133.16;4731651;30;20040;-74
2023/08/14 09:03:52;;;;;;;8.82;2.05;;;;;;;23.55;100.00;100146.28;4731725;30;20119;-73
2023/08/14 09:06:38;;;;;;;14.80;2.47;;;;;;;23.69;100.00;100142.75;4743276;30;20150;-73
2023/08/14 09:09:24;;;;;;;8.07;1.98;;;;;;;23.79;100.00;100130.69;4738313;30;20091;-74
2023/08/14 09:12:09;;;;;;;10.15;1.98;;;;;;;23.90;100.00;100139.28;4715004;30;20051;-74
2023/08/14 09:15:04;;;;;;;8.55;2.15;;;;;;;24.02;100.00;100141.81;4703384;30;20049;-74
2023/08/14 09:17:53;;;;;;;8.65;2.22;;;;;;;24.16;100.00;100141.91;4721994;30;20487;-74
2023/08/14 09:20:39;;;;;;;8.82;1.80;;;;;;;24.27;100.00;100148.47;4713081;30;20048;-73
2023/08/14 09:23:25;;;;;;;10.25;2.28;;;;;;;24.32;100.00;100144.44;4698005;30;20490;-74
2023/08/14 09:26:11;;;;;;;7.72;2.00;;;;;;;24.42;100.00;100148.53;4726285;30;20067;-73
2023/08/14 09:28:57;;;;;;;11.07;2.13;;;;;;;24.44;100.00;100146.97;4714483;30;20414;-73
2023/08/14 09:31:44;;;;;;;13.80;2.25;;;;;;;24.50;100.00;100148.22;4714741;30;20103;-73
2023/08/14 09:34:30;;;;;;;8.95;2.08;;;;;;;24.58;100.00;100148.25;4709960;30;20137;-74
2023/08/14 09:37:17;;;;;;;10.55;2.15;;;;;;;24.65;100.00;100151.13;4725075;30;20054;-74
2023/08/14 09:40:14;;;;;;;15.10;2.55;;;;;;;24.77;100.00;100141.44;4725859;30;20047;-74
2023/08/14 09:43:00;;;;;;;11.80;2.05;;;;;;;24.89;100.00;100143.91;4727349;30;20044;-73
2023/08/14 09:45:46;;;;;;;14.65;2.55;;;;;;;24.98;100.00;100144.34;4739161;30;20495;-74
2023/08/14 09:48:42;;;;;;;9.18;2.05;;;;;;;25.11;100.00;100145.59;4713897;30;20110;-74
2023/08/14 09:51:28;;;;;;;10.45;2.38;;;;;;;25.18;100.00;100150.50;4713617;30;20127;-74
2023/08/14 09:54:14;;;;;;;8.25;2.05;;;;;;;25.28;100.00;100154.59;4730870;30;20535;-74
2023/08/14 09:57:00;;;;;;;10.20;2.08;;;;;;;25.35;100.00;100151.75;4730757;30;20483;-74
2023/08/14 09:59:46;;;;;;;8.55;2.45;;;;;;;25.44;100.00;100155.03;4730718;30;20044;-74
2023/08/14 10:02:32;;;;;;;9.32;2.05;;;;;;;25.51;100.00;100146.50;4719796;30;20451;-74
2023/08/14 10:05:18;;;;;;;8.85;1.75;;;;;;;25.64;100.00;100153.44;4730783;30;20044;-74
2023/08/14 10:08:04;;;;;;;10.82;2.53;;;;;;;25.67;100.00;100151.00;4743470;30;20032;-74
2023/08/14 10:10:50;;;;;;;9.23;2.13;;;;;;;25.69;100.00;100157.09;4708226;30;20048;-74
2023/08/14 10:13:38;;;;;;;8.95;1.90;;;;;;;25.72;100.00;100156.28;4708972;30;20057;-74
2023/08/14 10:16:27;;;;;;;8.95;2.30;;;;;;;25.75;100.00;100147.75;4724425;30;20049;-74
2023/08/14 10:19:13;;;;;;;9.05;2.40;;;;;;;25.81;100.00;100148.16;4708835;30;20124;-74
2023/08/14 10:21:59;;;;;;;8.80;1.80;;;;;;;25.89;100.00;100143.31;4713659;30;20044;-74
2023/08/14 10:24:44;;;;;;;11.80;2.22;;;;;;;25.94;100.00;100146.56;4697481;30;20100;-74
2023/08/14 10:27:30;;;;;;;12.90;1.92;;;;;;;26.03;100.00;100154.66;4737305;30;20367;-74
2023/08/14 10:30:17;;;;;;;9.27;2.20;;;;;;;26.15;100.00;100151.38;4719987;30;20565;-74
2023/08/14 10:33:03;;;;;;;8.88;1.75;;;;;;;26.30;100.00;100149.34;4734378;30;20073;-74
2023/08/14 10:35:54;;;;;;;6.32;1.80;;;;;;;26.47;100.00;100148.47;4723056;30;20456;-74
2023/08/14 10:38:41;;;;;;;14.43;2.38;;;;;;;26.60;100.00;100143.16;4722419;30;20057;-74
2023/08/14 10:41:29;;;;;;;9.68;2.30;;;;;;;26.74;100.00;100142.28;4734242;30;20391;-74
2023/08/14 10:44:16;;;;;;;13.23;2.33;;;;;;;26.92;100.00;100131.63;4734183;30;20520;-74
2023/08/14 10:47:11;;;;;;;12.85;2.45;;;;;;;27.09;100.00;100129.09;4734012;30;20032;-74
2023/08/14 10:49:57;;;;;;;7.72;1.95;;;;;;;27.30;100.00;100140.41;4733817;30;20036;-74
2023/08/14 10:52:53;;;;;;;9.73;1.80;;;;;;;27.38;100.00;100136.25;4733696;30;20040;-74
2023/08/14 10:55:45;;;;;;;8.35;2.03;;;;;;;27.49;100.00;100141.06;4734392;30;20040;-74
2023/08/14 10:58:31;;;;;;;10.35;2.08;;;;;;;27.54;100.00;100130.03;4733980;30;20051;-74
2023/08/14 11:01:17;;;;;;;6.75;1.90;;;;;;;27.63;100.00;100130.34;4758919;30;20119;-74
2023/08/14 11:04:06;;;;;;;11.15;2.25;;;;;;;27.61;99.34;100120.63;4733543;30;20044;-74
2023/08/14 11:06:58;;;;;;;9.18;2.40;;;;;;;27.64;99.82;100119.78;4733417;30;20447;-74
2023/08/14 11:09:44;;;;;;;11.43;2.30;;;;;;;27.61;99.72;100120.63;4741715;30;20044;-74
2023/08/14 11:12:31;;;;;;;10.02;2.30;;;;;;;27.58;99.14;100121.44;4716214;30;20040;-74
2023/08/14 11:15:19;;;;;;;9.32;2.20;;;;;;;27.53;97.97;100117.00;4700903;30;20065;-74
2023/08/14 11:18:06;;;;;;;7.13;1.80;;;;;;;27.61;100.00;100109.22;4726937;30;20182;-74
2023/08/14 11:20:51;;;;;;;8.05;1.92;;;;;;;27.66;98.11;100103.03;4715362;30;20033;-74
2023/08/14 11:23:37;;;;;;;8.48;1.88;;;;;;;27.71;99.04;100110.34;4717073;30;20044;-74
2023/08/14 11:26:27;;;;;;;6.22;2.03;;;;;;;27.79;98.11;100111.91;4728985;30;20413;-74
2023/08/14 11:29:13;;;;;;;10.35;2.25;;;;;;;27.87;97.02;100110.63;4717499;30;20117;-74
2023/08/14 11:32:00;;;;;;;7.68;1.80;;;;;;;27.90;98.24;100108.97;4716133;30;20388;-74
2023/08/14 11:34:45;;;;;;;9.57;2.13;;;;;;;27.98;97.72;100111.34;4715785;30;20071;-74
2023/08/14 11:37:31;;;;;;;8.82;1.80;;;;;;;28.04;96.30;100109.63;4717183;30;20045;-74
2023/08/14 11:40:17;;;;;;;9.45;2.20;;;;;;;28.15;97.37;100109.53;4704301;30;20045;-74
2023/08/14 11:43:03;;;;;;;8.82;1.80;;;;;;;28.29;98.63;100103.66;4721688;30;20506;-74
2023/08/14 11:45:49;;;;;;;12.02;2.45;;;;;;;28.51;94.17;100103.44;4732949;30;20051;-74
2023/08/14 11:48:38;;;;;;;10.82;2.22;;;;;;;28.64;93.27;100101.66;4732740;30;20040;-74
2023/08/14 11:51:24;;;;;;;8.52;2.58;;;;;;;28.87;90.14;100100.94;4732980;30;20497;-74
2023/08/14 11:54:10;;;;;;;9.55;2.13;;;;;;;29.04;82.84;100098.28;4732873;30;20056;-74
2023/08/14 11:56:56;;;;;;;7.85;2.30;;;;;;;29.28;89.69;100110.56;4732559;30;20067;-74
2023/08/14 11:59:43;;;;;;;7.10;1.70;;;;;;;29.54;89.36;100101.16;4732553;30;20039;-74
2023/08/14 12:02:29;;;;;;;10.43;2.15;;;;;;;29.81;84.45;100108.88;4732734;30;20044;-74
2023/08/14 12:05:15;;;;;;;9.55;2.33;;;;;;;30.03;78.79;100110.16;4757356;30;20205;-74
2023/08/14 12:08:01;;;;;;;8.15;2.08;;;;;;;30.23;72.40;100110.22;4721418;30;20060;-74
2023/08/14 12:10:47;;;;;;;8.35;2.03;;;;;;;30.48;76.08;100112.56;4721453;30;20115;-74
2023/08/14 12:13:36;;;;;;;6.50;1.85;;;;;;;30.75;72.67;100107.91;4710422;30;20049;-74
2023/08/14 12:16:22;;;;;;;7.32;1.60;;;;;;;31.00;71.58;100102.47;4713763;30;20037;-74
2023/08/14 12:19:08;;;;;;;10.57;2.03;;;;;;;31.23;67.92;100103.56;4708677;30;20071;-74
2023/08/14 12:21:59;;;;;;;8.00;1.77;;;;;;;31.44;63.96;100096.56;4715119;30;20048;-74
2023/08/14 12:24:45;;;;;;;8.90;1.80;;;;;;;31.61;60.27;100106.78;4716951;30;20049;-74
2023/08/14 12:27:31;;;;;;;6.40;1.65;;;;;;;31.78;60.19;100110.44;4716851;30;20033;-74
2023/08/14 12:30:16;;;;;;;7.50;2.05;;;;;;;31.83;53.81;100104.16;4715718;30;20039;-74
2023/08/14 12:33:02;;;;;;;4.15;1.60;;;;;;;31.86;57.02;100106.13;4727774;30;20051;-74
2023/08/14 12:35:49;;;;;;;8.00;2.00;;;;;;;31.87;57.77;100106.94;4714139;30;20470;-74
2023/08/14 12:38:37;;;;;;;5.90;1.83;;;;;;;31.80;56.53;100110.81;4727279;30;20059;-74
2023/08/14 12:41:22;;;;;;;6.80;1.70;;;;;;;31.73;56.01;100111.81;4702806;30;20045;-74
2023/08/14 12:44:08;;;;;;;5.90;1.60;;;;;;;31.63;57.33;100110.00;4714994;30;20036;-74
2023/08/14 12:46:54;;;;;;;8.75;1.88;;;;;;;31.46;58.44;100112.06;4714956;30;20039;-74